Time;durP1;ratioP1;P1;durP2;ratioP2;P2;SDS_P1;SDS_P2;PMS_P1;PMS_P2;Temp;Humidity;BMP_temperature;BMP_pressure;BME280_temperature;BME280_humidity;BME280_pressure;Samples;Min_cycle;Max_cycle;Signal;HPM_P1;HPM_P2
2020/12/23 00:01:10;;;;;;;5.03;2.70;;;23.70;51.70;;;;;;5081404;28;20471;-64
2020/12/23 00:03:36;;;;;;;4.53;2.72;;;23.70;51.60;;;;;;5079933;28;20032;-65
2020/12/23 00:06:02;;;;;;;4.28;2.70;;;23.70;51.60;;;;;;5082868;28;20028;-64
2020/12/23 00:08:27;;;;;;;5.13;3.00;;;23.70;51.60;;;;;;5076980;28;20111;-65
2020/12/23 00:10:53;;;;;;;5.60;2.63;;;23.70;51.60;;;;;;5078252;28;20052;-65
2020/12/23 00:13:19;;;;;;;4.13;2.50;;;23.60;51.50;;;;;;5082081;28;20016;-65
2020/12/23 00:15:45;;;;;;;4.47;2.42;;;23.60;51.50;;;;;;5066429;28;20032;-66
2020/12/23 00:18:10;;;;;;;4.90;2.72;;;23.70;51.60;;;;;;5082235;28;20044;-66
2020/12/23 00:20:36;;;;;;;4.32;2.58;;;23.70;51.60;;;;;;5082205;28;20114;-65
2020/12/23 00:23:01;;;;;;;3.80;2.30;;;23.60;51.50;;;;;;5082850;28;20109;-64
2020/12/23 00:25:28;;;;;;;4.78;2.60;;;23.60;51.60;;;;;;5081976;28;20054;-63
2020/12/23 00:27:54;;;;;;;4.18;2.80;;;23.60;51.60;;;;;;5082030;28;20032;-64
2020/12/23 00:30:20;;;;;;;4.28;2.90;;;23.70;51.60;;;;;;5082488;28;20836;-64
2020/12/23 00:32:46;;;;;;;4.03;2.58;;;23.60;51.60;;;;;;5083794;28;20064;-64
2020/12/23 00:35:12;;;;;;;4.38;2.92;;;23.60;51.60;;;;;;5086746;28;20130;-64
2020/12/23 00:37:38;;;;;;;4.40;2.50;;;23.60;51.70;;;;;;5084724;28;20401;-65
2020/12/23 00:40:04;;;;;;;4.00;2.75;;;23.60;51.60;;;;;;5084003;28;20036;-64
2020/12/23 00:42:30;;;;;;;3.75;2.50;;;23.60;51.60;;;;;;5084682;28;20031;-65
2020/12/23 00:44:58;;;;;;;3.83;2.40;;;23.60;51.70;;;;;;5068629;28;20032;-64
2020/12/23 00:47:23;;;;;;;4.18;2.60;;;23.60;51.70;;;;;;5070607;28;20039;-65
2020/12/23 00:49:49;;;;;;;4.90;2.50;;;23.60;51.70;;;;;;5083632;28;20379;-64
2020/12/23 00:52:15;;;;;;;4.60;2.42;;;23.60;51.60;;;;;;5083274;28;20092;-64
2020/12/23 00:54:40;;;;;;;3.60;2.35;;;23.60;51.60;;;;;;5083574;28;20397;-65
2020/12/23 00:57:06;;;;;;;4.80;2.63;;;23.60;51.60;;;;;;5077730;28;20028;-64
2020/12/23 00:59:31;;;;;;;5.47;2.40;;;23.60;51.60;;;;;;5084433;28;20115;-64
2020/12/23 01:01:58;;;;;;;3.97;2.38;;;23.60;51.60;;;;;;5080876;28;20050;-64
2020/12/23 01:04:24;;;;;;;4.25;2.53;;;23.60;51.60;;;;;;5081717;28;20107;-64
2020/12/23 01:06:50;;;;;;;4.35;2.40;;;23.60;51.60;;;;;;5083730;28;20059;-66
2020/12/23 01:09:16;;;;;;;5.53;2.67;;;23.60;51.60;;;;;;5085190;28;20138;-64
2020/12/23 01:11:41;;;;;;;3.75;2.50;;;23.60;51.60;;;;;;5083389;28;20086;-64
2020/12/23 01:14:07;;;;;;;3.95;2.40;;;23.60;51.50;;;;;;5064164;28;20025;-64
2020/12/23 01:16:32;;;;;;;3.80;2.42;;;23.60;51.50;;;;;;5082047;28;20111;-64
2020/12/23 01:18:58;;;;;;;2.88;1.90;;;23.60;51.50;;;;;;5083665;28;20032;-63
2020/12/23 01:21:24;;;;;;;4.10;2.30;;;23.60;51.50;;;;;;5084050;28;20575;-64
2020/12/23 01:23:49;;;;;;;3.85;1.98;;;23.60;51.50;;;;;;5084959;28;20024;-65
2020/12/23 01:26:16;;;;;;;4.28;2.20;;;23.50;51.40;;;;;;5082936;28;20085;-64
2020/12/23 01:28:44;;;;;;;3.75;2.20;;;23.60;51.40;;;;;;5077529;28;20036;-64
2020/12/23 01:31:10;;;;;;;3.72;2.10;;;23.60;51.40;;;;;;5063789;28;20020;-66
2020/12/23 01:33:36;;;;;;;3.67;2.25;;;23.50;51.30;;;;;;5058713;28;20032;-63
2020/12/23 01:36:01;;;;;;;2.70;1.80;;;23.50;51.20;;;;;;5047583;28;20717;-63
2020/12/23 01:38:27;;;;;;;4.38;2.03;;;23.50;51.20;;;;;;5047508;28;20044;-65
2020/12/23 01:41:01;;;;;;;3.65;2.15;;;23.50;51.20;;;;;;5045523;28;20028;-64
2020/12/23 01:43:27;;;;;;;3.80;2.10;;;23.50;51.20;;;;;;5045708;28;20030;-63
2020/12/23 01:45:53;;;;;;;3.50;2.00;;;23.50;51.20;;;;;;5045263;28;20043;-65
2020/12/23 01:48:24;;;;;;;3.78;2.10;;;23.50;51.20;;;;;;5062704;28;20044;-65
2020/12/23 01:50:50;;;;;;;3.58;2.13;;;23.50;51.20;;;;;;5064393;28;20025;-65
2020/12/23 01:53:19;;;;;;;3.35;2.10;;;23.50;51.30;;;;;;5064156;28;20465;-63
2020/12/23 01:55:47;;;;;;;3.00;2.00;;;23.50;51.20;;;;;;5055682;28;20482;-65
2020/12/23 01:58:13;;;;;;;2.67;1.67;;;23.40;51.20;;;;;;5060163;28;20397;-64
2020/12/23 02:00:40;;;;;;;3.28;1.85;;;23.40;51.20;;;;;;5063976;28;20052;-64
2020/12/23 02:03:09;;;;;;;2.85;1.70;;;23.50;51.30;;;;;;5062447;28;20037;-65
2020/12/23 02:05:36;;;;;;;3.03;1.92;;;23.40;51.20;;;;;;5063237;28;20104;-63
2020/12/23 02:08:02;;;;;;;3.72;2.30;;;23.40;51.20;;;;;;5048200;28;20036;-64
2020/12/23 02:10:28;;;;;;;3.05;2.00;;;23.40;51.20;;;;;;5067607;28;20764;-64
2020/12/23 02:12:54;;;;;;;3.83;1.90;;;23.40;51.30;;;;;;5067568;28;20036;-65
2020/12/23 02:15:19;;;;;;;2.80;1.80;;;23.40;51.30;;;;;;5067284;28;20450;-64
2020/12/23 02:17:46;;;;;;;3.05;1.90;;;23.40;51.30;;;;;;5065272;28;20144;-66
2020/12/23 02:20:14;;;;;;;2.95;1.80;;;23.40;51.30;;;;;;5067448;28;20021;-64
2020/12/23 02:22:49;;;;;;;3.72;2.13;;;23.40;51.30;;;;;;5069056;28;20140;-64
2020/12/23 02:25:15;;;;;;;3.00;1.80;;;23.40;51.30;;;;;;5058947;28;20036;-63
2020/12/23 02:27:41;;;;;;;2.97;1.90;;;23.40;51.30;;;;;;5051914;28;20383;-64
2020/12/23 02:30:09;;;;;;;2.92;2.10;;;23.40;51.30;;;;;;5087270;28;20469;-64
2020/12/23 02:32:35;;;;;;;2.78;1.80;;;23.40;51.30;;;;;;5086427;28;20465;-63
2020/12/23 02:35:02;;;;;;;3.10;1.73;;;23.40;51.30;;;;;;5068102;28;20072;-64
2020/12/23 02:37:28;;;;;;;3.20;1.85;;;23.40;51.30;;;;;;5067510;28;20340;-65
2020/12/23 02:39:55;;;;;;;2.42;1.60;;;23.40;51.30;;;;;;5086934;28;20103;-64
2020/12/23 02:42:23;;;;;;;3.83;1.90;;;23.40;51.30;;;;;;5088462;28;20380;-63
2020/12/23 02:44:49;;;;;;;3.47;1.92;;;23.40;51.30;;;;;;5090793;28;20102;-64
2020/12/23 02:47:16;;;;;;;2.58;1.60;;;23.40;51.30;;;;;;5091316;28;20024;-63
2020/12/23 02:49:42;;;;;;;3.17;2.00;;;23.40;51.30;;;;;;5087022;28;20099;-66
2020/12/23 02:52:08;;;;;;;2.63;1.58;;;23.40;51.30;;;;;;5086752;28;20092;-65
2020/12/23 02:54:35;;;;;;;2.90;1.58;;;23.40;51.30;;;;;;5068444;28;20059;-64
2020/12/23 02:57:02;;;;;;;2.40;1.60;;;23.40;51.30;;;;;;5084957;28;20108;-64
2020/12/23 02:59:27;;;;;;;3.10;1.95;;;23.40;51.30;;;;;;5068508;28;20035;-64
2020/12/23 03:01:53;;;;;;;3.17;1.88;;;23.40;51.30;;;;;;5072023;28;20027;-65
2020/12/23 03:04:19;;;;;;;2.53;1.60;;;23.40;51.40;;;;;;5068089;28;20052;-65
2020/12/23 03:06:44;;;;;;;2.50;1.70;;;23.40;51.40;;;;;;5085480;28;20107;-64
2020/12/23 03:09:11;;;;;;;2.83;1.75;;;23.30;51.30;;;;;;5086841;28;20121;-64
2020/12/23 03:11:37;;;;;;;3.15;1.70;;;23.30;51.30;;;;;;5067613;28;20028;-65
2020/12/23 03:14:04;;;;;;;2.58;1.63;;;23.30;51.30;;;;;;5087108;28;20031;-64
2020/12/23 03:16:30;;;;;;;2.90;1.67;;;23.30;51.30;;;;;;5091996;28;20032;-66
2020/12/23 03:18:55;;;;;;;2.50;1.60;;;23.30;51.40;;;;;;5093097;28;20123;-66
2020/12/23 03:21:21;;;;;;;2.70;1.70;;;23.30;51.30;;;;;;5086961;28;20453;-65
2020/12/23 03:23:47;;;;;;;3.30;1.88;;;23.30;51.30;;;;;;5091371;28;20023;-64
2020/12/23 03:26:13;;;;;;;3.15;1.60;;;23.30;51.40;;;;;;5086021;28;20440;-64
2020/12/23 03:28:38;;;;;;;2.40;1.48;;;23.30;51.30;;;;;;5079347;28;20115;-64
2020/12/23 03:31:04;;;;;;;2.47;1.60;;;23.30;51.40;;;;;;5064628;28;20063;-64
2020/12/23 03:33:30;;;;;;;2.50;1.60;;;23.30;51.30;;;;;;5066160;28;20048;-64
2020/12/23 03:35:57;;;;;;;3.00;1.70;;;23.30;51.30;;;;;;5061658;28;20040;-63
2020/12/23 03:38:23;;;;;;;2.85;1.80;;;23.30;51.30;;;;;;5065230;28;20036;-64
2020/12/23 03:40:49;;;;;;;2.65;1.60;;;23.30;51.30;;;;;;5072914;28;20454;-65
2020/12/23 03:43:15;;;;;;;2.90;1.50;;;23.30;51.30;;;;;;5064859;28;20024;-65
2020/12/23 03:45:40;;;;;;;3.33;1.40;;;23.30;51.40;;;;;;5047222;28;20119;-65
2020/12/23 03:48:06;;;;;;;4.15;1.75;;;23.30;51.40;;;;;;5060342;28;20427;-64
2020/12/23 03:50:32;;;;;;;2.50;1.58;;;23.30;51.40;;;;;;5073964;28;20447;-65
2020/12/23 03:52:58;;;;;;;2.25;1.50;;;23.30;51.40;;;;;;5066022;28;20033;-63
2020/12/23 03:55:23;;;;;;;2.58;1.60;;;23.30;51.40;;;;;;5065543;28;20029;-65
2020/12/23 03:57:49;;;;;;;2.50;1.75;;;23.30;51.40;;;;;;5056018;28;20538;-64
2020/12/23 04:00:14;;;;;;;2.60;1.58;;;23.30;51.30;;;;;;5063049;28;20082;-64
2020/12/23 04:02:40;;;;;;;2.38;1.60;;;23.30;51.40;;;;;;5065783;28;20059;-65
2020/12/23 04:05:07;;;;;;;2.97;1.63;;;23.30;51.40;;;;;;5061392;28;20036;-64
2020/12/23 04:07:32;;;;;;;2.75;1.58;;;23.30;51.40;;;;;;5063924;28;20041;-66
2020/12/23 04:09:58;;;;;;;2.60;1.60;;;23.30;51.40;;;;;;5044584;28;20089;-63
2020/12/23 04:12:24;;;;;;;2.45;1.50;;;23.30;51.40;;;;;;5068554;28;20112;-65
2020/12/23 04:14:49;;;;;;;2.50;1.60;;;23.30;51.40;;;;;;5065661;28;20021;-65
2020/12/23 04:17:15;;;;;;;2.28;1.50;;;23.30;51.40;;;;;;5064831;28;20951;-63
2020/12/23 04:19:41;;;;;;;2.70;1.60;;;23.30;51.40;;;;;;5059869;28;20063;-64
2020/12/23 04:22:06;;;;;;;2.10;1.35;;;23.30;51.40;;;;;;5066879;28;20370;-64
2020/12/23 04:24:32;;;;;;;1.95;1.30;;;23.30;51.40;;;;;;5065022;28;20467;-64
2020/12/23 04:26:57;;;;;;;2.92;1.40;;;23.30;51.40;;;;;;5064177;28;20039;-64
2020/12/23 04:29:23;;;;;;;2.33;1.40;;;23.30;51.40;;;;;;5058806;28;20128;-64
2020/12/23 04:31:49;;;;;;;2.53;1.23;;;23.30;51.40;;;;;;5083289;28;20056;-63
2020/12/23 04:34:14;;;;;;;2.15;1.30;;;23.30;51.40;;;;;;5085156;28;20109;-64
2020/12/23 04:36:40;;;;;;;2.22;1.33;;;23.30;51.40;;;;;;5077454;28;20690;-65
2020/12/23 04:39:06;;;;;;;1.90;1.17;;;23.30;51.40;;;;;;5067149;28;20055;-64
2020/12/23 04:41:34;;;;;;;2.28;1.40;;;23.20;51.30;;;;;;5082392;28;20039;-64
2020/12/23 04:44:01;;;;;;;1.83;1.20;;;23.30;51.40;;;;;;5083942;28;20861;-65
2020/12/23 04:46:32;;;;;;;2.13;1.27;;;23.20;51.30;;;;;;5062655;28;20115;-64
2020/12/23 04:48:59;;;;;;;1.60;1.15;;;23.20;51.30;;;;;;5065000;28;20024;-64
2020/12/23 04:51:33;;;;;;;2.30;1.40;;;23.20;51.30;;;;;;5080512;28;20039;-65
2020/12/23 04:54:00;;;;;;;2.40;1.30;;;23.20;51.30;;;;;;5085530;28;20039;-65
2020/12/23 04:56:27;;;;;;;2.42;1.30;;;23.20;51.30;;;;;;5079706;28;20118;-66
2020/12/23 04:58:54;;;;;;;2.17;1.30;;;23.20;51.30;;;;;;5084764;28;20502;-63
2020/12/23 05:01:20;;;;;;;2.03;1.40;;;23.20;51.30;;;;;;5079565;28;20039;-64
2020/12/23 05:03:46;;;;;;;2.30;1.25;;;23.20;51.30;;;;;;5083914;28;20036;-64
2020/12/23 05:06:12;;;;;;;1.85;1.20;;;23.30;51.40;;;;;;5065951;28;20055;-64
2020/12/23 05:08:37;;;;;;;1.52;1.10;;;23.20;51.30;;;;;;5084676;28;20398;-65
2020/12/23 05:11:08;;;;;;;2.22;1.23;;;23.20;51.30;;;;;;5065485;28;20043;-66
2020/12/23 05:13:37;;;;;;;2.42;1.40;;;23.20;51.30;;;;;;5082660;28;20031;-65
2020/12/23 05:16:08;;;;;;;2.45;1.42;;;23.20;51.30;;;;;;5082739;28;20498;-64
2020/12/23 05:18:35;;;;;;;2.17;1.20;;;23.20;51.30;;;;;;5083419;28;20056;-65
2020/12/23 05:21:02;;;;;;;1.75;1.17;;;23.20;51.30;;;;;;5084186;28;20059;-64
2020/12/23 05:23:31;;;;;;;2.58;1.45;;;23.20;51.30;;;;;;5068360;28;20032;-64
2020/12/23 05:26:04;;;;;;;2.03;1.15;;;23.20;51.30;;;;;;5083471;28;20036;-64
2020/12/23 05:28:31;;;;;;;2.20;1.38;;;23.30;51.30;;;;;;5083427;28;20131;-65
2020/12/23 05:30:57;;;;;;;2.63;1.70;;;23.20;51.30;;;;;;5083911;28;20509;-64
2020/12/23 05:33:23;;;;;;;2.15;1.33;;;23.20;51.20;;;;;;5082282;28;20024;-65
2020/12/23 05:35:49;;;;;;;1.75;1.10;;;23.20;51.30;;;;;;5084262;28;20119;-65
2020/12/23 05:38:21;;;;;;;1.67;1.10;;;23.20;51.30;;;;;;5073934;28;20464;-66
2020/12/23 05:40:46;;;;;;;2.13;1.20;;;23.20;51.20;;;;;;5083535;28;20491;-66
2020/12/23 05:43:14;;;;;;;1.77;1.10;;;23.20;51.20;;;;;;5082805;28;20028;-64
2020/12/23 05:45:42;;;;;;;2.08;1.20;;;23.20;51.20;;;;;;5083848;28;20042;-65
2020/12/23 05:48:12;;;;;;;1.92;1.17;;;23.20;51.20;;;;;;5065405;28;20489;-64
2020/12/23 05:50:38;;;;;;;2.10;1.30;;;23.20;51.20;;;;;;5085010;28;20043;-64
2020/12/23 05:53:13;;;;;;;2.22;1.30;;;23.20;51.70;;;;;;5071926;28;20039;-65
2020/12/23 05:55:50;;;;;;;1.60;1.10;;;23.20;51.20;;;;;;5068302;28;20514;-64
2020/12/23 05:58:29;;;;;;;2.00;1.20;;;23.20;51.20;;;;;;5082766;28;20683;-64
2020/12/23 06:01:00;;;;;;;2.17;1.38;;;23.20;51.20;;;;;;5081795;28;20131;-64
2020/12/23 06:03:29;;;;;;;2.05;1.20;;;23.20;51.20;;;;;;5080591;28;20047;-63
2020/12/23 06:06:03;;;;;;;1.80;1.17;;;23.20;51.10;;;;;;5065633;28;20139;-64
2020/12/23 06:08:31;;;;;;;1.77;1.10;;;23.20;51.10;;;;;;5075567;28;20536;-64
2020/12/23 06:11:16;;;;;;;2.28;1.08;;;23.20;51.20;;;;;;5083128;28;20077;-64
2020/12/23 06:14:03;;;;;;;2.25;1.30;;;23.10;51.10;;;;;;5079574;28;20032;-64
2020/12/23 06:16:33;;;;;;;2.03;1.20;;;23.20;51.20;;;;;;5081276;28;20035;-64
2020/12/23 06:19:00;;;;;;;1.73;1.10;;;23.20;51.20;;;;;;5083422;28;20781;-64
2020/12/23 06:21:26;;;;;;;1.30;0.88;;;23.20;51.20;;;;;;5078018;28;20024;-65
2020/12/23 06:24:07;;;;;;;2.05;1.10;;;23.10;51.10;;;;;;5082931;28;20449;-64
2020/12/23 06:26:37;;;;;;;1.70;1.02;;;23.20;51.10;;;;;;5080025;28;20048;-65
2020/12/23 06:29:14;;;;;;;1.70;1.13;;;23.20;51.10;;;;;;5083527;28;20176;-64
2020/12/23 06:31:43;;;;;;;1.92;1.10;;;23.10;51.10;;;;;;5081380;28;20024;-64
2020/12/23 06:34:13;;;;;;;1.70;1.10;;;23.20;51.10;;;;;;5080842;28;20099;-66
2020/12/23 06:36:39;;;;;;;1.38;1.00;;;23.20;51.10;;;;;;5083086;28;20165;-66
2020/12/23 06:39:38;;;;;;;1.45;0.90;;;23.10;51.10;;;;;;5084608;28;20119;-64
2020/12/23 06:42:03;;;;;;;1.38;1.02;;;23.10;51.10;;;;;;5070041;28;20024;-63
2020/12/23 06:44:41;;;;;;;1.70;1.10;;;23.10;51.10;;;;;;5074886;28;20419;-65
2020/12/23 06:47:08;;;;;;;1.25;0.88;;;23.20;51.10;;;;;;5078741;28;20092;-64
2020/12/23 06:49:40;;;;;;;2.30;1.15;;;23.10;51.00;;;;;;5077263;28;20055;-64
2020/12/23 06:52:21;;;;;;;1.88;1.17;;;23.10;51.00;;;;;;5081246;28;20851;-64
2020/12/23 06:54:51;;;;;;;1.08;0.90;;;23.20;51.10;;;;;;5085502;28;20044;-65
2020/12/23 06:57:35;;;;;;;1.80;1.13;;;23.10;51.00;;;;;;5064521;28;20058;-65
2020/12/23 07:00:20;;;;;;;1.92;1.10;;;23.10;51.00;;;;;;5065300;28;20047;-66
2020/12/23 07:02:56;;;;;;;1.60;1.05;;;23.10;51.00;;;;;;5082156;28;20036;-64
2020/12/23 07:05:21;;;;;;;1.98;1.08;;;23.10;51.00;;;;;;5068090;28;20556;-65
2020/12/23 07:07:52;;;;;;;1.55;1.10;;;23.10;51.00;;;;;;5083227;28;20040;-66
2020/12/23 07:10:23;;;;;;;1.30;0.90;;;23.10;51.00;;;;;;5078345;28;20039;-65
2020/12/23 07:12:49;;;;;;;1.42;1.00;;;23.10;50.90;;;;;;5081219;28;20741;-65
2020/12/23 07:15:23;;;;;;;1.25;1.00;;;23.10;50.90;;;;;;5084316;28;20082;-65
2020/12/23 07:18:10;;;;;;;1.58;0.90;;;23.10;50.90;;;;;;5085822;28;20039;-64
2020/12/23 07:20:35;;;;;;;1.65;1.10;;;23.10;50.80;;;;;;5078809;28;20113;-65
2020/12/23 07:23:05;;;;;;;1.30;0.90;;;23.10;50.80;;;;;;5066117;28;20028;-64
2020/12/23 07:25:36;;;;;;;1.52;0.90;;;23.10;50.80;;;;;;5086470;28;20032;-65
2020/12/23 07:28:05;;;;;;;1.58;1.10;;;23.10;50.80;;;;;;5084189;28;20028;-65
2020/12/23 07:30:35;;;;;;;1.60;1.00;;;23.10;50.80;;;;;;5086677;28;20043;-64
2020/12/23 07:33:10;;;;;;;1.30;0.90;;;23.10;50.70;;;;;;5085325;28;20058;-66
2020/12/23 07:35:37;;;;;;;1.40;1.00;;;23.10;50.70;;;;;;5080602;28;20028;-66
2020/12/23 07:38:05;;;;;;;1.35;1.00;;;23.10;50.70;;;;;;5062470;28;20032;-65
2020/12/23 07:40:31;;;;;;;1.48;0.90;;;23.10;50.70;;;;;;5090886;28;20036;-63
2020/12/23 07:42:57;;;;;;;0.93;0.80;;;23.10;50.80;;;;;;5081798;28;20758;-61
2020/12/23 07:45:28;;;;;;;1.70;1.00;;;23.10;50.70;;;;;;5083147;28;20107;-64
2020/12/23 07:47:59;;;;;;;2.05;1.00;;;23.10;47.90;;;;;;5086895;28;20024;-62
2020/12/23 07:50:26;;;;;;;1.95;1.20;;;23.00;46.10;;;;;;5059221;28;20024;-63
2020/12/23 07:52:52;;;;;;;1.20;0.80;;;22.90;44.90;;;;;;5087729;28;20051;-62
2020/12/23 07:55:20;;;;;;;1.27;0.75;;;22.80;44.30;;;;;;5077735;28;20028;-62
2020/12/23 07:57:54;;;;;;;1.33;0.80;;;22.70;44.40;;;;;;5087434;28;20178;-63
2020/12/23 08:00:21;;;;;;;1.58;0.90;;;22.70;44.80;;;;;;5086675;28;20039;-64
2020/12/23 08:02:48;;;;;;;1.58;0.75;;;22.70;45.40;;;;;;5087052;28;20477;-63
2020/12/23 08:05:14;;;;;;;1.00;0.70;;;22.70;45.80;;;;;;5086621;28;20031;-63
2020/12/23 08:07:44;;;;;;;0.90;0.75;;;22.70;46.10;;;;;;5073296;28;20024;-63
2020/12/23 08:10:13;;;;;;;2.05;0.70;;;22.60;46.30;;;;;;5080884;28;20028;-63
2020/12/23 08:12:41;;;;;;;0.75;0.65;;;22.70;46.50;;;;;;5078068;28;20032;-63
2020/12/23 08:15:13;;;;;;;1.13;0.77;;;22.70;46.70;;;;;;5069247;28;20101;-63
2020/12/23 08:17:40;;;;;;;1.00;0.70;;;22.60;46.90;;;;;;5086447;28;20679;-63
2020/12/23 08:20:11;;;;;;;1.20;0.85;;;22.60;47.10;;;;;;5087261;28;20122;-65
2020/12/23 08:22:39;;;;;;;1.38;0.70;;;22.60;47.20;;;;;;5086959;28;20028;-62
2020/12/23 08:25:11;;;;;;;0.85;0.60;;;22.60;47.30;;;;;;5079583;28;20071;-64
2020/12/23 08:27:38;;;;;;;0.77;0.68;;;22.60;47.40;;;;;;5070516;28;20066;-63
2020/12/23 08:30:16;;;;;;;1.20;0.60;;;22.60;47.60;;;;;;5086962;28;20123;-63
2020/12/23 08:33:00;;;;;;;1.10;0.82;;;22.60;47.70;;;;;;5086356;28;20108;-64
2020/12/23 08:35:34;;;;;;;1.02;0.70;;;22.60;47.80;;;;;;5086235;28;20031;-64
2020/12/23 08:37:59;;;;;;;0.70;0.60;;;22.60;47.90;;;;;;5060710;28;20032;-63
2020/12/23 08:40:25;;;;;;;0.85;0.60;;;22.60;48.00;;;;;;5086505;28;20032;-62
2020/12/23 08:42:56;;;;;;;0.98;0.73;;;22.60;48.10;;;;;;5085399;28;20082;-63
2020/12/23 08:45:27;;;;;;;0.63;0.55;;;22.60;48.20;;;;;;5086784;28;20028;-64
2020/12/23 08:47:54;;;;;;;0.75;0.60;;;22.60;48.30;;;;;;5085915;28;20028;-63
2020/12/23 08:50:21;;;;;;;1.17;0.77;;;22.60;48.40;;;;;;5086822;28;20131;-62
2020/12/23 08:52:49;;;;;;;0.82;0.60;;;22.60;48.40;;;;;;5085417;28;20482;-64
2020/12/23 08:55:23;;;;;;;0.68;0.60;;;22.60;48.50;;;;;;5086780;28;20024;-65
2020/12/23 08:57:50;;;;;;;0.75;0.60;;;22.50;48.60;;;;;;5084423;28;20131;-63
2020/12/23 09:00:19;;;;;;;1.02;0.60;;;22.60;48.70;;;;;;5083844;28;20527;-63
2020/12/23 09:02:46;;;;;;;0.95;0.70;;;22.50;48.80;;;;;;5084806;28;20032;-64
2020/12/23 09:05:23;;;;;;;0.68;0.63;;;22.50;48.80;;;;;;5084280;28;20028;-64
2020/12/23 09:08:06;;;;;;;1.10;0.63;;;22.50;49.00;;;;;;5067370;28;20116;-62
2020/12/23 09:10:33;;;;;;;0.75;0.60;;;22.50;49.00;;;;;;5067091;28;20028;-62
2020/12/23 09:13:11;;;;;;;1.08;0.60;;;22.50;49.00;;;;;;5077722;28;20032;-62
2020/12/23 09:15:38;;;;;;;0.70;0.60;;;22.50;49.20;;;;;;5084859;28;20224;-62
2020/12/23 09:18:13;;;;;;;1.35;0.68;;;22.50;49.20;;;;;;5085642;28;20043;-62
2020/12/23 09:20:41;;;;;;;0.90;0.50;;;22.50;49.30;;;;;;5085103;28;20038;-62
2020/12/23 09:23:08;;;;;;;1.33;0.70;;;22.50;49.30;;;;;;5084091;28;20056;-62
2020/12/23 09:25:35;;;;;;;0.68;0.50;;;22.40;49.30;;;;;;5085646;28;20131;-63
2020/12/23 09:28:04;;;;;;;0.82;0.63;;;22.50;49.40;;;;;;5067316;28;20446;-63
2020/12/23 09:30:33;;;;;;;1.10;0.70;;;22.40;49.40;;;;;;5086184;28;20454;-64
2020/12/23 09:33:00;;;;;;;1.00;0.70;;;22.40;49.50;;;;;;5086771;28;20326;-62
2020/12/23 09:35:27;;;;;;;0.73;0.60;;;22.40;49.50;;;;;;5080673;28;20473;-65
2020/12/23 09:38:09;;;;;;;1.13;0.70;;;22.40;49.60;;;;;;5067900;28;20081;-61
2020/12/23 09:40:36;;;;;;;0.90;0.70;;;22.40;49.60;;;;;;5065768;28;20031;-64
2020/12/23 09:43:07;;;;;;;0.70;0.60;;;22.40;49.70;;;;;;5078302;28;20044;-64
2020/12/23 09:45:32;;;;;;;1.40;0.65;;;22.40;49.70;;;;;;5084507;28;20355;-63
2020/12/23 09:47:58;;;;;;;0.73;0.63;;;22.40;49.70;;;;;;5084909;28;20036;-61
2020/12/23 09:50:24;;;;;;;2.33;0.70;;;22.40;49.80;;;;;;5087087;28;20735;-62
2020/12/23 09:52:49;;;;;;;0.60;0.52;;;22.40;49.80;;;;;;5085059;28;20043;-62
2020/12/23 09:55:15;;;;;;;1.55;0.70;;;22.40;49.80;;;;;;5086326;28;20042;-63
2020/12/23 09:57:40;;;;;;;1.10;0.60;;;22.40;49.90;;;;;;5085324;28;20036;-65
2020/12/23 10:00:07;;;;;;;1.98;0.70;;;22.30;49.90;;;;;;5086237;28;20750;-62
2020/12/23 10:02:33;;;;;;;1.00;0.68;;;22.30;49.90;;;;;;5084570;28;20036;-63
2020/12/23 10:04:59;;;;;;;1.60;0.90;;;22.30;49.90;;;;;;5086143;28;20024;-63
2020/12/23 10:07:24;;;;;;;1.58;0.70;;;22.40;50.00;;;;;;5070400;28;20060;-63
2020/12/23 10:09:50;;;;;;;1.17;0.70;;;22.30;50.00;;;;;;5085955;28;20039;-62
2020/12/23 10:12:18;;;;;;;0.65;0.60;;;22.30;50.00;;;;;;5084471;28;20115;-63
2020/12/23 10:14:44;;;;;;;0.77;0.70;;;22.30;50.00;;;;;;5071142;28;20115;-63
2020/12/23 10:17:09;;;;;;;0.85;0.60;;;22.30;50.10;;;;;;5082562;28;20107;-62
2020/12/23 10:19:37;;;;;;;1.67;0.75;;;22.30;50.10;;;;;;5086180;28;20687;-62
2020/12/23 10:22:03;;;;;;;1.77;0.70;;;22.30;50.10;;;;;;5082278;28;20102;-63
2020/12/23 10:24:28;;;;;;;1.15;0.68;;;22.30;50.10;;;;;;5084015;28;20146;-63
2020/12/23 10:26:54;;;;;;;2.17;0.70;;;22.30;50.20;;;;;;5080582;28;20118;-64
2020/12/23 10:29:20;;;;;;;0.82;0.63;;;22.30;50.20;;;;;;5095080;28;20101;-63
2020/12/23 10:31:46;;;;;;;1.10;0.70;;;22.20;50.30;;;;;;5092085;28;20023;-66
2020/12/23 10:34:13;;;;;;;2.25;1.00;;;22.30;50.30;;;;;;5089065;28;20016;-61
2020/12/23 10:36:38;;;;;;;1.80;0.90;;;22.30;50.30;;;;;;5088783;28;20035;-62
2020/12/23 10:39:06;;;;;;;1.70;0.80;;;22.30;50.30;;;;;;5085285;28;20036;-62
2020/12/23 10:41:31;;;;;;;1.65;0.90;;;22.40;50.30;;;;;;5083531;28;20032;-63
2020/12/23 10:43:57;;;;;;;1.38;0.85;;;22.40;50.30;;;;;;5089262;28;20029;-60
2020/12/23 10:46:23;;;;;;;1.67;0.90;;;22.40;50.30;;;;;;5084431;28;20103;-63
2020/12/23 10:48:49;;;;;;;2.35;0.90;;;22.40;50.30;;;;;;5089083;28;20115;-64
2020/12/23 10:51:14;;;;;;;1.42;0.80;;;22.40;50.30;;;;;;5088169;28;20038;-63
2020/12/23 10:53:40;;;;;;;1.52;0.73;;;22.40;50.20;;;;;;5087432;28;20024;-65
2020/12/23 10:56:10;;;;;;;1.75;0.80;;;22.50;50.30;;;;;;5086186;28;20109;-64
2020/12/23 10:58:35;;;;;;;2.38;0.93;;;22.50;50.20;;;;;;5085618;28;20376;-63
2020/12/23 11:01:05;;;;;;;1.58;0.90;;;22.50;50.30;;;;;;5084686;28;20031;-65
2020/12/23 11:03:32;;;;;;;;;;;22.50;50.20;;;;;;5082048;28;20051;-61
2020/12/23 11:05:58;;;;;;;2.00;1.00;;;22.50;50.20;;;;;;5085589;28;20001;-62
2020/12/23 11:08:24;;;;;;;2.92;1.10;;;22.60;50.20;;;;;;5080619;28;20024;-61
2020/12/23 11:10:50;;;;;;;1.95;0.90;;;22.60;50.20;;;;;;5086605;28;20016;-64
2020/12/23 11:13:15;;;;;;;1.50;0.80;;;22.60;50.20;;;;;;5067585;28;20111;-64
2020/12/23 11:15:41;;;;;;;2.03;0.93;;;22.60;50.20;;;;;;5081877;28;21957;-63
2020/12/23 11:18:06;;;;;;;2.05;0.70;;;22.60;50.20;;;;;;5067613;28;20036;-62
2020/12/23 11:20:32;;;;;;;1.45;0.75;;;22.60;50.30;;;;;;5087775;28;20361;-65
2020/12/23 11:22:57;;;;;;;1.55;0.70;;;22.60;50.30;;;;;;5085851;28;20032;-61
2020/12/23 11:25:23;;;;;;;1.27;0.73;;;22.60;50.30;;;;;;5075197;28;20024;-61
2020/12/23 11:27:49;;;;;;;1.65;0.70;;;22.60;50.30;;;;;;5082277;28;20526;-63
2020/12/23 11:30:14;;;;;;;1.63;0.82;;;22.60;50.40;;;;;;5069115;28;20031;-64
2020/12/23 11:32:40;;;;;;;1.65;0.75;;;22.60;50.30;;;;;;5073567;28;20115;-62
2020/12/23 11:35:05;;;;;;;1.17;0.75;;;22.60;50.30;;;;;;5084830;28;20602;-63
2020/12/23 11:37:31;;;;;;;1.48;0.70;;;22.60;50.40;;;;;;5084847;28;20036;-62
2020/12/23 11:39:57;;;;;;;2.22;0.80;;;22.50;50.30;;;;;;5084513;28;20415;-61
2020/12/23 11:42:23;;;;;;;1.20;0.80;;;22.60;50.40;;;;;;5084151;28;20107;-61
2020/12/23 11:44:50;;;;;;;3.28;0.98;;;22.60;50.40;;;;;;5072559;28;20348;-63
2020/12/23 11:47:16;;;;;;;3.28;0.88;;;22.60;50.40;;;;;;5069593;28;20554;-62
2020/12/23 11:49:42;;;;;;;2.35;0.60;;;22.60;50.40;;;;;;5082241;28;20111;-61
2020/12/23 11:52:07;;;;;;;1.77;0.80;;;22.60;50.40;;;;;;5077078;28;20138;-62
2020/12/23 11:54:33;;;;;;;2.22;0.82;;;22.60;50.40;;;;;;5085582;28;20028;-62
2020/12/23 11:56:59;;;;;;;2.05;0.98;;;22.50;50.40;;;;;;5085176;28;20494;-62
2020/12/23 11:59:26;;;;;;;2.20;0.77;;;22.50;50.40;;;;;;5083691;28;20043;-63
2020/12/23 12:01:55;;;;;;;1.23;0.63;;;22.50;50.40;;;;;;5063721;28;20100;-64
2020/12/23 12:04:21;;;;;;;2.85;0.95;;;22.50;50.40;;;;;;5068032;28;20055;-64
2020/12/23 12:06:47;;;;;;;3.03;0.93;;;22.50;50.40;;;;;;5085049;28;20075;-62
2020/12/23 12:09:13;;;;;;;4.03;0.90;;;22.50;50.50;;;;;;5068335;28;20028;-64
2020/12/23 12:11:39;;;;;;;1.30;0.70;;;22.50;50.50;;;;;;5082619;28;20032;-63
2020/12/23 12:14:04;;;;;;;1.73;1.00;;;22.50;50.50;;;;;;5086065;28;20024;-64
2020/12/23 12:16:30;;;;;;;3.50;1.02;;;22.50;50.50;;;;;;5083676;28;20032;-62
2020/12/23 12:18:56;;;;;;;2.50;0.85;;;22.50;50.60;;;;;;5084826;28;20240;-62
2020/12/23 12:21:28;;;;;;;2.92;0.95;;;22.50;50.70;;;;;;5084151;28;20081;-62
2020/12/23 12:23:54;;;;;;;1.83;0.70;;;22.50;50.70;;;;;;5082622;28;20028;-62
2020/12/23 12:26:19;;;;;;;3.40;0.70;;;22.40;50.70;;;;;;5083495;28;20039;-62
2020/12/23 12:28:45;;;;;;;3.20;0.80;;;22.50;51.30;;;;;;5084366;28;20047;-63
2020/12/23 12:31:10;;;;;;;4.25;0.90;;;22.50;50.70;;;;;;5083288;28;20821;-65
2020/12/23 12:33:36;;;;;;;5.97;1.02;;;22.60;50.60;;;;;;5083987;28;20100;-61
2020/12/23 12:36:02;;;;;;;2.30;0.90;;;22.60;50.60;;;;;;5086950;28;20103;-62
2020/12/23 12:38:27;;;;;;;3.25;0.90;;;22.60;50.60;;;;;;5086006;28;20360;-59
2020/12/23 12:40:53;;;;;;;2.85;0.95;;;22.60;50.40;;;;;;5093290;28;20031;-62
2020/12/23 12:43:18;;;;;;;1.52;0.73;;;22.60;50.40;;;;;;5070353;28;20056;-63
2020/12/23 12:45:44;;;;;;;2.33;0.80;;;22.60;50.40;;;;;;5067423;28;20089;-61
2020/12/23 12:48:10;;;;;;;1.88;0.95;;;22.70;50.40;;;;;;5085105;28;20039;-62
2020/12/23 12:50:35;;;;;;;3.50;0.98;;;22.70;50.40;;;;;;5069174;28;20031;-63